createdAt,value
2023-06-04T00:04:44.226Z,2.60
2023-06-04T00:09:36.242Z,2.72
2023-06-04T00:14:28.226Z,2.43
2023-06-04T00:19:20.193Z,3.10
2023-06-04T00:24:14.104Z,3.00
2023-06-04T00:29:06.248Z,2.80
2023-06-04T00:33:58.080Z,2.92
2023-06-04T00:38:49.988Z,2.87
2023-06-04T00:43:41.873Z,2.70
2023-06-04T00:48:34.278Z,2.83
2023-06-04T00:53:26.894Z,2.92
2023-06-04T00:58:18.990Z,2.45
2023-06-04T01:03:20.257Z,3.03
2023-06-04T01:08:14.222Z,2.42
2023-06-04T01:13:06.303Z,2.70
2023-06-04T01:18:07.128Z,3.10
2023-06-04T01:23:13.072Z,2.95
2023-06-04T01:28:05.974Z,3.00
2023-06-04T01:32:58.237Z,2.88
2023-06-04T01:37:50.932Z,2.60
2023-06-04T01:42:44.068Z,2.80
2023-06-04T01:47:36.298Z,2.88
2023-06-04T01:57:22.348Z,3.22
2023-06-04T02:02:15.357Z,2.85
2023-06-04T02:07:08.101Z,2.75
2023-06-04T02:12:00.122Z,2.92
2023-06-04T02:16:52.381Z,3.22
2023-06-04T02:21:44.682Z,2.95
2023-06-04T02:26:36.830Z,3.22
2023-06-04T02:31:28.773Z,3.60
2023-06-04T02:36:21.090Z,3.30
2023-06-04T02:41:13.137Z,3.58
2023-06-04T02:46:05.171Z,3.63
2023-06-04T02:50:57.878Z,3.25
2023-06-04T02:55:49.887Z,3.80
2023-06-04T03:00:42.833Z,3.10
2023-06-04T03:05:35.116Z,3.63
2023-06-04T03:10:28.144Z,3.30
2023-06-04T03:15:20.027Z,3.00
2023-06-04T03:20:12.939Z,3.50
2023-06-04T03:25:06.368Z,2.70
2023-06-04T03:29:59.791Z,3.33
2023-06-04T03:34:54.156Z,3.08
2023-06-04T03:39:46.213Z,3.40
2023-06-04T03:44:41.173Z,3.63
2023-06-04T03:49:33.605Z,3.38
2023-06-04T03:59:18.336Z,3.70
2023-06-04T04:04:11.739Z,3.13
2023-06-04T04:09:05.069Z,2.83
2023-06-04T04:13:58.130Z,3.70
2023-06-04T04:18:50.326Z,3.50
2023-06-04T04:23:42.346Z,3.08
2023-06-04T04:28:35.772Z,3.00
2023-06-04T04:33:27.885Z,3.70
2023-06-04T04:38:26.197Z,3.10
2023-06-04T04:43:35.155Z,3.03
2023-06-04T04:48:47.260Z,3.30
2023-06-04T04:53:39.575Z,3.10
2023-06-04T04:58:31.599Z,3.65
2023-06-04T05:03:24.644Z,3.10
2023-06-04T05:08:17.504Z,3.42
2023-06-04T05:13:10.105Z,2.90
2023-06-04T05:18:08.900Z,2.83
2023-06-04T05:23:03.329Z,3.22
2023-06-04T05:27:57.862Z,3.15
2023-06-04T05:32:51.711Z,3.30
2023-06-04T05:37:46.857Z,3.00
2023-06-04T05:42:42.417Z,3.00
2023-06-04T05:47:35.245Z,2.95
2023-06-04T05:52:27.243Z,3.40
2023-06-04T05:57:19.515Z,3.17
2023-06-04T06:02:11.760Z,3.38
2023-06-04T06:07:06.208Z,3.30
2023-06-04T06:11:59.289Z,3.30
2023-06-04T06:16:51.813Z,3.40
2023-06-04T06:21:43.907Z,3.20
2023-06-04T06:26:36.076Z,3.30
2023-06-04T06:31:29.954Z,3.47
2023-06-04T06:41:13.930Z,3.05
2023-06-04T06:46:05.991Z,3.03
2023-06-04T06:50:58.000Z,2.85
2023-06-04T06:55:49.983Z,3.17
2023-06-04T07:00:41.976Z,3.78
2023-06-04T07:05:33.859Z,3.43
2023-06-04T07:10:26.028Z,3.10
2023-06-04T07:15:17.947Z,3.30
2023-06-04T07:20:10.533Z,3.93
2023-06-04T07:25:02.550Z,3.53
2023-06-04T07:29:54.372Z,3.33
2023-06-04T07:34:46.435Z,3.33
2023-06-04T07:39:38.290Z,3.75
2023-06-04T07:44:30.177Z,3.60
2023-06-04T07:49:22.081Z,3.03
2023-06-04T07:54:15.196Z,3.57
2023-06-04T07:59:07.032Z,3.30
2023-06-04T08:04:00.426Z,3.40
2023-06-04T08:08:52.333Z,3.22
2023-06-04T08:13:44.345Z,9.50
2023-06-04T08:18:39.336Z,13.80
2023-06-04T08:23:31.245Z,11.63
2023-06-04T08:28:23.129Z,11.20
2023-06-04T08:33:15.196Z,10.97
2023-06-04T08:38:07.295Z,10.57
2023-06-04T08:42:59.974Z,8.25
2023-06-04T08:47:52.221Z,8.25
2023-06-04T08:52:44.282Z,8.32
2023-06-04T08:57:36.426Z,8.70
2023-06-04T09:02:29.232Z,7.03
2023-06-04T09:07:21.806Z,7.65
2023-06-04T09:17:08.278Z,6.78
2023-06-04T09:22:03.729Z,8.05
2023-06-04T09:26:55.636Z,7.63
2023-06-04T09:31:48.750Z,7.93
2023-06-04T09:36:40.788Z,7.30
2023-06-04T09:41:33.598Z,8.55
2023-06-04T09:46:25.446Z,8.18
2023-06-04T09:51:20.857Z,8.60
2023-06-04T09:56:14.815Z,9.27
2023-06-04T10:01:07.751Z,9.40
2023-06-04T10:06:01.525Z,7.55
2023-06-04T10:10:56.596Z,9.23
2023-06-04T10:15:48.533Z,8.13
2023-06-04T10:20:41.878Z,9.07
2023-06-04T10:25:33.871Z,9.27
2023-06-04T10:30:26.189Z,8.15
2023-06-04T10:35:18.157Z,9.02
2023-06-04T10:40:10.272Z,8.18
2023-06-04T10:45:02.334Z,6.32
2023-06-04T10:49:55.881Z,5.72
2023-06-04T10:54:49.995Z,6.13
2023-06-04T10:59:41.988Z,5.93
2023-06-04T11:04:33.873Z,6.32
2023-06-04T11:09:25.669Z,5.83
2023-06-04T11:14:19.196Z,6.13
2023-06-04T11:19:11.179Z,6.60
2023-06-04T11:24:04.675Z,6.68
2023-06-04T11:28:57.095Z,6.72
2023-06-04T11:33:49.595Z,6.47
2023-06-04T11:38:41.490Z,5.88
2023-06-04T11:43:34.086Z,6.20
2023-06-04T11:53:18.774Z,5.77
2023-06-04T12:03:02.571Z,6.80
2023-06-04T12:08:05.514Z,6.30
2023-06-04T12:12:57.579Z,6.30
2023-06-04T12:17:53.650Z,6.68
2023-06-04T12:33:19.217Z,7.70
2023-06-04T12:38:11.488Z,8.55
2023-06-04T12:43:03.341Z,7.30
2023-06-04T12:47:55.211Z,8.13
2023-06-04T12:52:47.363Z,8.07
2023-06-04T12:57:39.293Z,8.68
2023-06-04T13:02:31.428Z,8.53
2023-06-04T13:07:24.654Z,6.97
2023-06-04T13:12:18.033Z,7.13
2023-06-04T13:17:21.368Z,7.07
2023-06-04T13:22:14.959Z,7.07
2023-06-04T13:27:06.956Z,6.72
2023-06-04T13:31:58.919Z,6.97
2023-06-04T13:36:51.711Z,7.43
2023-06-04T13:41:43.905Z,7.40
2023-06-04T13:46:35.743Z,7.20
2023-06-04T13:51:28.464Z,7.77
2023-06-04T13:56:20.363Z,6.15
2023-06-04T14:01:12.317Z,6.70
2023-06-04T14:06:04.262Z,7.07
2023-06-04T14:10:56.463Z,6.72
2023-06-04T14:15:48.306Z,6.90
2023-06-04T14:20:40.179Z,6.73
2023-06-04T14:25:35.942Z,6.57
2023-06-04T14:30:27.847Z,6.40
2023-06-04T14:35:19.640Z,6.25
2023-06-04T14:40:11.924Z,7.07
2023-06-04T14:45:04.562Z,6.70
2023-06-04T14:54:48.132Z,6.30
2023-06-04T14:59:40.286Z,6.37
2023-06-04T15:04:32.208Z,5.78
2023-06-04T15:09:24.096Z,5.93
2023-06-04T15:14:16.275Z,6.07
2023-06-04T15:19:09.441Z,5.70
2023-06-04T15:24:01.619Z,5.10
2023-06-04T15:28:54.628Z,5.78
2023-06-04T15:33:46.936Z,4.80
2023-06-04T15:38:38.832Z,5.65
2023-06-04T15:43:30.739Z,5.22
2023-06-04T15:48:22.626Z,5.00
2023-06-04T15:53:14.874Z,5.03
2023-06-04T15:58:06.792Z,4.82
2023-06-04T16:02:58.797Z,5.15
2023-06-04T16:07:50.906Z,4.63
2023-06-04T16:12:42.807Z,5.28
2023-06-04T16:17:34.813Z,5.37
2023-06-04T16:22:26.704Z,5.30
2023-06-04T16:27:18.604Z,5.03
2023-06-04T16:32:10.510Z,5.35
2023-06-04T16:37:02.337Z,4.80
2023-06-04T16:41:54.308Z,5.63
2023-06-04T16:46:46.245Z,5.30
2023-06-04T16:51:38.746Z,5.88
2023-06-04T16:56:30.637Z,5.25
2023-06-04T17:01:22.485Z,5.70
2023-06-04T17:06:14.415Z,5.87
2023-06-04T17:11:06.558Z,5.22
2023-06-04T17:15:58.393Z,5.20
2023-06-04T17:20:50.344Z,5.33
2023-06-04T17:25:42.225Z,5.57
2023-06-04T17:30:34.171Z,5.63
2023-06-04T17:35:26.044Z,5.80
2023-06-04T17:40:17.906Z,5.35
2023-06-04T17:45:11.501Z,5.20
2023-06-04T17:50:07.776Z,5.32
2023-06-04T17:54:59.817Z,5.55
2023-06-04T17:59:51.710Z,5.22
2023-06-04T18:04:43.656Z,5.10
2023-06-04T18:09:35.730Z,5.15
2023-06-04T18:14:27.651Z,5.22
2023-06-04T18:19:22.039Z,5.47
2023-06-04T18:24:13.999Z,5.88
2023-06-04T18:29:06.016Z,5.93
2023-06-04T18:34:01.768Z,5.78
2023-06-04T18:38:53.785Z,5.30
2023-06-04T18:43:45.848Z,5.90
2023-06-04T18:48:37.775Z,5.93
2023-06-04T18:53:29.660Z,5.60
2023-06-04T18:58:21.541Z,5.00
2023-06-04T19:03:13.486Z,5.50
2023-06-04T19:08:05.679Z,5.00
2023-06-04T19:12:57.538Z,5.63
2023-06-04T19:17:50.599Z,5.17
2023-06-04T19:22:42.642Z,5.13
2023-06-04T19:27:34.595Z,5.25
2023-06-04T19:32:29.300Z,5.40
2023-06-04T19:37:21.215Z,5.40
2023-06-04T19:42:13.295Z,5.20
2023-06-04T19:47:06.323Z,5.20
2023-06-04T19:51:58.495Z,5.35
2023-06-04T19:56:50.487Z,5.93
2023-06-04T20:01:42.402Z,5.03
2023-06-04T20:06:34.322Z,5.60
2023-06-04T20:11:27.396Z,5.47
2023-06-04T20:16:19.831Z,5.43
2023-06-04T20:21:11.863Z,5.07
2023-06-04T20:26:03.725Z,4.97
2023-06-04T20:30:55.820Z,5.20
2023-06-04T20:35:47.732Z,4.93
2023-06-04T20:40:39.580Z,4.60
2023-06-04T20:45:31.864Z,4.90
2023-06-04T20:50:23.817Z,4.72
2023-06-04T20:55:17.088Z,4.90
2023-06-04T21:00:10.491Z,4.70
2023-06-04T21:05:02.591Z,4.60
2023-06-04T21:09:54.381Z,4.93
2023-06-04T21:14:46.252Z,4.97
2023-06-04T21:19:38.428Z,4.50
2023-06-04T21:24:30.535Z,4.57
2023-06-04T21:29:22.414Z,4.70
2023-06-04T21:34:14.468Z,4.70
2023-06-04T21:39:06.378Z,4.23
2023-06-04T21:43:58.169Z,4.70
2023-06-04T21:48:50.631Z,4.82
2023-06-04T21:53:42.428Z,4.78
2023-06-04T21:58:34.251Z,4.13
2023-06-04T22:03:26.309Z,4.47
2023-06-04T22:08:18.385Z,4.30
2023-06-04T22:13:10.397Z,4.90
2023-06-04T22:18:02.403Z,4.40
2023-06-04T22:22:54.439Z,4.28
2023-06-04T22:27:46.432Z,4.28
2023-06-04T22:32:38.985Z,4.20
2023-06-04T22:37:31.033Z,4.63
2023-06-04T22:42:22.851Z,3.70
2023-06-04T22:47:14.740Z,4.73
2023-06-04T22:52:07.664Z,4.70
2023-06-04T22:56:59.593Z,4.50
2023-06-04T23:01:51.475Z,4.13
2023-06-04T23:06:43.331Z,4.27
2023-06-04T23:16:27.922Z,4.50
2023-06-04T23:21:20.531Z,4.40
2023-06-04T23:26:12.423Z,4.40
2023-06-04T23:31:04.339Z,4.17
2023-06-04T23:35:56.430Z,4.17
2023-06-04T23:40:48.345Z,4.32
2023-06-04T23:45:40.313Z,4.53
2023-06-04T23:50:32.156Z,4.20
2023-06-04T23:55:23.984Z,4.27
